createdAt,value
2023-01-26T00:03:41.279Z,1.00
2023-01-26T00:08:49.382Z,1.00
2023-01-26T00:13:52.250Z,1.00
2023-01-26T00:18:55.332Z,1.00
2023-01-26T00:23:58.725Z,0.90
2023-01-26T00:29:01.836Z,0.80
2023-01-26T00:34:04.668Z,0.80
2023-01-26T00:39:07.335Z,0.90
2023-01-26T00:44:10.966Z,0.90
2023-01-26T00:49:13.727Z,0.80
2023-01-26T00:54:16.496Z,0.80
2023-01-26T00:59:19.306Z,0.80
2023-01-26T01:04:22.093Z,0.70
2023-01-26T01:09:25.458Z,0.60
2023-01-26T01:14:28.178Z,0.60
2023-01-26T01:19:31.030Z,0.50
2023-01-26T01:24:35.613Z,0.60
2023-01-26T01:29:38.468Z,0.70
2023-01-26T01:34:41.349Z,0.60
2023-01-26T01:39:44.204Z,0.70
2023-01-26T01:45:07.579Z,0.60
2023-01-26T01:50:15.746Z,0.60
2023-01-26T01:55:18.679Z,0.60
2023-01-26T02:00:24.145Z,0.50
2023-01-26T02:05:32.705Z,0.50
2023-01-26T02:10:36.498Z,0.50
2023-01-26T02:15:40.442Z,0.60
2023-01-26T02:20:52.547Z,0.60
2023-01-26T02:25:57.447Z,0.70
2023-01-26T02:31:01.020Z,0.80
2023-01-26T02:36:05.559Z,0.80
2023-01-26T02:41:12.878Z,0.90
2023-01-26T02:46:15.841Z,0.90
2023-01-26T02:51:19.106Z,0.90
2023-01-26T02:56:23.690Z,0.90
2023-01-26T03:01:26.858Z,0.80
2023-01-26T03:06:29.702Z,0.80
2023-01-26T03:11:42.420Z,0.80
2023-01-26T03:16:45.503Z,0.90
2023-01-26T03:22:06.558Z,0.80
2023-01-26T03:27:28.965Z,0.80
2023-01-26T03:32:37.642Z,0.80
2023-01-26T03:37:44.098Z,0.80
2023-01-26T03:43:12.351Z,0.70
2023-01-26T03:48:34.281Z,0.70
2023-01-26T03:53:57.397Z,0.70
2023-01-26T03:59:13.154Z,0.60
2023-01-26T04:04:35.341Z,0.70
2023-01-26T04:09:42.197Z,0.70
2023-01-26T04:15:03.426Z,0.80
2023-01-26T04:20:26.889Z,0.70
2023-01-26T04:25:29.756Z,0.60
2023-01-26T04:30:33.822Z,0.50
2023-01-26T04:35:38.216Z,0.60
2023-01-26T04:40:41.241Z,0.60
2023-01-26T04:45:45.362Z,0.70
2023-01-26T04:50:57.238Z,0.70
2023-01-26T04:56:01.312Z,0.70
2023-01-26T05:01:05.481Z,0.70
2023-01-26T05:06:09.068Z,0.70
2023-01-26T05:11:12.199Z,0.70
2023-01-26T05:16:36.961Z,0.70
2023-01-26T05:22:02.242Z,0.60
2023-01-26T05:27:21.445Z,0.60
2023-01-26T05:32:31.430Z,0.70
2023-01-26T05:37:34.657Z,0.70
2023-01-26T05:42:37.454Z,0.60
2023-01-26T05:47:50.194Z,0.60
2023-01-26T05:52:53.103Z,0.70
2023-01-26T05:57:56.227Z,0.60
2023-01-26T06:02:59.261Z,0.60
2023-01-26T06:08:02.041Z,0.60
2023-01-26T06:13:12.659Z,0.60
2023-01-26T06:18:27.585Z,0.60
2023-01-26T06:23:32.345Z,0.60
2023-01-26T06:28:37.680Z,0.60
2023-01-26T06:33:40.624Z,0.70
2023-01-26T06:38:49.568Z,0.60
2023-01-26T06:43:53.117Z,0.60
2023-01-26T06:48:56.261Z,0.70
2023-01-26T06:53:59.486Z,0.70
2023-01-26T06:59:11.041Z,0.70
2023-01-26T07:04:50.701Z,0.60
2023-01-26T07:09:54.014Z,0.70
2023-01-26T07:14:56.637Z,0.70
2023-01-26T07:19:59.467Z,0.70
2023-01-26T07:25:02.297Z,0.70
2023-01-26T07:30:05.704Z,0.70
2023-01-26T07:35:09.137Z,0.70
2023-01-26T07:40:12.718Z,0.70
2023-01-26T07:45:18.023Z,0.70
2023-01-26T07:50:21.835Z,0.70
2023-01-26T07:55:26.595Z,0.80
2023-01-26T08:00:29.513Z,0.70
2023-01-26T08:05:33.031Z,0.60
2023-01-26T08:10:36.126Z,0.70
2023-01-26T08:15:38.942Z,0.80
2023-01-26T08:20:41.791Z,0.90
2023-01-26T08:25:44.593Z,1.10
2023-01-26T08:30:47.641Z,1.10
2023-01-26T08:35:50.588Z,1.00
2023-01-26T08:40:54.788Z,1.10
2023-01-26T08:45:58.188Z,1.10
2023-01-26T08:51:03.088Z,1.20
2023-01-26T08:56:08.262Z,1.30
2023-01-26T09:01:16.953Z,0.90
2023-01-26T09:06:20.349Z,1.00
2023-01-26T09:11:23.238Z,1.00
2023-01-26T09:16:26.098Z,1.10
2023-01-26T09:21:29.447Z,1.10
2023-01-26T09:26:32.463Z,0.90
2023-01-26T09:31:35.319Z,0.90
2023-01-26T09:36:40.590Z,1.00
2023-01-26T09:41:50.346Z,1.10
2023-01-26T09:47:15.930Z,1.00
2023-01-26T09:52:28.503Z,1.00
2023-01-26T09:57:50.673Z,1.00
2023-01-26T10:02:53.420Z,1.20
2023-01-26T10:07:56.797Z,1.10
2023-01-26T10:13:00.460Z,1.30
2023-01-26T10:18:07.407Z,1.50
2023-01-26T10:23:22.145Z,1.40
2023-01-26T10:28:30.687Z,1.30
2023-01-26T10:33:36.186Z,1.40
2023-01-26T10:38:41.961Z,1.60
2023-01-26T10:43:53.341Z,1.40
2023-01-26T10:48:59.806Z,1.50
2023-01-26T10:54:23.245Z,1.50
2023-01-26T10:59:39.596Z,1.60
2023-01-26T11:05:01.610Z,1.50
2023-01-26T11:10:27.604Z,1.40
2023-01-26T11:15:31.037Z,1.50
2023-01-26T11:20:59.422Z,1.50
2023-01-26T11:26:31.216Z,1.50
2023-01-26T11:32:26.921Z,1.70
2023-01-26T11:37:46.650Z,1.90
2023-01-26T11:43:12.526Z,2.00
2023-01-26T11:48:50.645Z,2.00
2023-01-26T11:54:25.680Z,1.70
2023-01-26T11:59:39.322Z,1.50
2023-01-26T12:04:47.168Z,1.60
2023-01-26T12:09:53.165Z,1.60
2023-01-26T12:15:14.315Z,1.40
2023-01-26T12:20:35.055Z,1.50
2023-01-26T12:26:03.976Z,1.50
2023-01-26T12:31:22.575Z,1.50
2023-01-26T12:36:43.996Z,1.50
2023-01-26T12:42:07.048Z,1.60
2023-01-26T12:47:25.130Z,1.60
2023-01-26T12:52:43.446Z,1.50
2023-01-26T12:58:02.148Z,1.50
2023-01-26T13:03:19.043Z,1.40
2023-01-26T13:08:30.924Z,1.40
2023-01-26T13:13:52.199Z,1.50
2023-01-26T13:18:56.837Z,1.50
2023-01-26T13:23:59.618Z,1.60
2023-01-26T13:29:36.455Z,1.70
2023-01-26T13:34:46.800Z,1.80
2023-01-26T13:39:57.318Z,1.90
2023-01-26T13:45:04.696Z,1.70
2023-01-26T13:50:30.244Z,1.80
2023-01-26T13:55:34.420Z,1.90
2023-01-26T14:00:38.080Z,2.20
2023-01-26T14:05:41.079Z,1.80
2023-01-26T14:10:44.258Z,1.80
2023-01-26T14:15:57.765Z,1.60
2023-01-26T14:21:14.702Z,1.70
2023-01-26T14:26:30.439Z,1.60
2023-01-26T14:31:33.418Z,1.50
2023-01-26T14:36:39.589Z,1.40
2023-01-26T14:41:42.784Z,1.40
2023-01-26T14:47:03.546Z,1.30
2023-01-26T14:52:06.357Z,1.40
2023-01-26T14:57:11.943Z,1.20
2023-01-26T15:02:23.149Z,1.20
2023-01-26T15:07:45.519Z,1.10
2023-01-26T15:12:55.799Z,1.10
2023-01-26T15:18:13.789Z,1.10
2023-01-26T15:23:27.398Z,1.10
2023-01-26T15:28:30.237Z,1.00
2023-01-26T15:33:54.204Z,0.90
2023-01-26T15:39:11.217Z,0.90
2023-01-26T15:44:19.317Z,0.80
2023-01-26T15:49:23.308Z,0.80
2023-01-26T15:54:26.197Z,0.80
2023-01-26T15:59:28.960Z,0.80
2023-01-26T16:04:31.758Z,0.80
2023-01-26T16:09:34.817Z,0.70
2023-01-26T16:14:37.606Z,0.70
2023-01-26T16:19:40.692Z,0.70
2023-01-26T16:24:43.588Z,0.60
2023-01-26T16:29:46.490Z,0.60
2023-01-26T16:34:49.562Z,0.50
2023-01-26T16:39:52.481Z,0.60
2023-01-26T16:44:55.621Z,0.60
2023-01-26T16:49:59.057Z,0.50
2023-01-26T16:55:02.066Z,0.50
2023-01-26T17:00:08.136Z,0.60
2023-01-26T17:05:19.777Z,0.60
2023-01-26T17:10:25.365Z,0.60
2023-01-26T17:15:31.563Z,0.60
2023-01-26T17:20:34.464Z,0.50
2023-01-26T17:25:37.398Z,0.60
2023-01-26T17:30:40.235Z,0.50
2023-01-26T17:35:43.228Z,0.50
2023-01-26T17:40:54.228Z,0.50
2023-01-26T17:46:07.775Z,0.40
2023-01-26T17:51:19.239Z,0.50
2023-01-26T17:56:22.691Z,0.60
2023-01-26T18:01:27.248Z,0.60
2023-01-26T18:06:30.733Z,0.40
2023-01-26T18:11:33.848Z,0.40
2023-01-26T18:16:36.864Z,0.40
2023-01-26T18:21:39.830Z,0.40
2023-01-26T18:26:42.769Z,0.40
2023-01-26T18:31:46.004Z,0.30
2023-01-26T18:36:48.938Z,0.30
2023-01-26T18:41:51.827Z,0.30
2023-01-26T18:46:54.728Z,0.30
2023-01-26T18:51:58.427Z,0.30
2023-01-26T18:57:01.578Z,0.30
2023-01-26T19:02:04.870Z,0.40
2023-01-26T19:07:10.054Z,0.40
2023-01-26T19:12:13.007Z,0.30
2023-01-26T19:17:15.901Z,0.30
2023-01-26T19:22:18.788Z,0.30
2023-01-26T19:27:21.998Z,0.40
2023-01-26T19:32:25.065Z,0.40
2023-01-26T19:37:27.813Z,0.30
2023-01-26T19:42:30.546Z,0.30
2023-01-26T19:47:33.266Z,0.30
2023-01-26T19:52:36.327Z,0.20
2023-01-26T19:57:39.448Z,0.20
2023-01-26T20:02:42.682Z,0.30
2023-01-26T20:07:46.398Z,0.20
2023-01-26T20:12:49.511Z,0.20
2023-01-26T20:17:52.391Z,0.20
2023-01-26T20:22:55.413Z,0.10
2023-01-26T20:27:58.544Z,0.10
2023-01-26T20:33:02.518Z,0.10
2023-01-26T20:38:05.522Z,0.10
2023-01-26T20:43:08.577Z,0.10
2023-01-26T20:48:12.093Z,-0.10
2023-01-26T20:53:15.620Z,-0.10
2023-01-26T20:58:18.731Z,0.00
2023-01-26T21:03:21.725Z,0.10
2023-01-26T21:08:24.907Z,0.10
2023-01-26T21:13:28.308Z,0.00
2023-01-26T21:18:31.586Z,0.10
2023-01-26T21:23:35.464Z,0.10
2023-01-26T21:28:38.652Z,0.10
2023-01-26T21:33:48.209Z,0.00
2023-01-26T21:38:52.674Z,0.00
2023-01-26T21:44:00.258Z,0.10
2023-01-26T21:49:04.120Z,0.00
2023-01-26T21:54:07.534Z,0.10
2023-01-26T21:59:14.865Z,0.00
2023-01-26T22:04:22.473Z,0.10
2023-01-26T22:09:25.438Z,0.00
2023-01-26T22:14:28.161Z,0.00
2023-01-26T22:19:30.945Z,0.00
2023-01-26T22:24:34.069Z,-0.10
2023-01-26T22:29:36.933Z,0.00
2023-01-26T22:34:39.615Z,-0.10
2023-01-26T22:39:43.401Z,-0.10
2023-01-26T22:44:46.081Z,-0.10
2023-01-26T22:49:48.920Z,-0.10
2023-01-26T22:54:51.953Z,0.00
2023-01-26T22:59:54.671Z,0.00
2023-01-26T23:04:57.487Z,-0.10
2023-01-26T23:10:00.569Z,-0.10
2023-01-26T23:15:03.732Z,0.00
2023-01-26T23:20:07.185Z,0.00
2023-01-26T23:25:28.726Z,-0.10
2023-01-26T23:30:31.651Z,0.00
2023-01-26T23:35:34.355Z,-0.10
2023-01-26T23:40:38.045Z,-0.10
2023-01-26T23:45:41.061Z,-0.10
2023-01-26T23:50:43.850Z,-0.10
2023-01-26T23:55:47.484Z,0.00
